Time;durP1;ratioP1;P1;durP2;ratioP2;P2;SDS_P1;SDS_P2;PMS_P1;PMS_P2;Temp;Humidity;BMP_temperature;BMP_pressure;BME280_temperature;BME280_humidity;BME280_pressure;Samples;Min_cycle;Max_cycle;Signal;HPM_P1;HPM_P2
2024/03/06 00:00:09;;;;;;;;;;;;;;;;;;4984634;28;19925;-73
2024/03/06 00:02:35;;;;;;;;;;;;;;;;;;4968631;28;19979;-72
2024/03/06 00:05:01;;;;;;;;;;;;;;;;;;4974138;28;19929;-72
2024/03/06 00:07:26;;;;;;;;;;;;;;;;;;4974759;28;19949;-73
2024/03/06 00:09:54;;;;;;;;;;;;;;;;;;4979112;28;20435;-73
2024/03/06 00:12:20;;;;;;;;;;;;;;;;;;4975919;28;19918;-72
2024/03/06 00:14:45;;;;;;;;;;;;;;;;;;4983899;28;20436;-72
2024/03/06 00:17:10;;;;;;;;;;;;;;;;;;4974335;28;19925;-73
2024/03/06 00:19:36;;;;;;;;;;;;;;;;;;4958766;28;19921;-72
2024/03/06 00:22:03;;;;;;;;;;;;;;;;;;4976794;28;19932;-72
2024/03/06 00:24:32;;;;;;;;;;;;;;;;;;4971080;28;20957;-71
2024/03/06 00:26:57;;;;;;;;;;;;;;;;;;4981384;28;20681;-74
2024/03/06 00:29:23;;;;;;;;;;;;;;;;;;4984166;28;19918;-72
2024/03/06 00:31:48;;;;;;;;;;;;;;;;;;4973908;28;21556;-72
2024/03/06 00:34:15;;;;;;;;;;;;;;;;;;4967258;28;19933;-72
2024/03/06 00:36:40;;;;;;;;;;;;;;;;;;4973379;28;19941;-73
2024/03/06 00:39:05;;;;;;;;;;;;;;;;;;4983166;28;19941;-74
2024/03/06 00:41:31;;;;;;;;;;;;;;;;;;4977585;28;20158;-73
2024/03/06 00:43:56;;;;;;;;;;;;;;;;;;4983859;28;20213;-74
2024/03/06 00:46:22;;;;;;;;;;;;;;;;;;4959787;28;19921;-73
2024/03/06 00:48:47;;;;;;;;;;;;;;;;;;4974801;28;19944;-74
2024/03/06 00:51:12;;;;;;;;;;;;;;;;;;4969379;28;20025;-74
2024/03/06 00:53:37;;;;;;;;;;;;;;;;;;4976429;28;20289;-73
2024/03/06 00:56:03;;;;;;;;;;;;;;;;;;4969800;28;20048;-74
2024/03/06 00:58:28;;;;;;;;;;;;;;;;;;4985603;28;19917;-75
2024/03/06 01:00:53;;;;;;;;;;;;;;;;;;4978234;28;20611;-76
2024/03/06 01:03:19;;;;;;;;;;;;;;;;;;4979212;28;19956;-73
2024/03/06 01:05:45;;;;;;;;;;;;;;;;;;4968808;28;20574;-74
2024/03/06 01:08:10;;;;;;;;;;;;;;;;;;4979319;28;19918;-74
2024/03/06 01:10:35;;;;;;;;;;;;;;;;;;4953622;28;20331;-74
2024/03/06 01:13:01;;;;;;;;;;;;;;;;;;4984851;28;20009;-73
2024/03/06 01:15:26;;;;;;;;;;;;;;;;;;4977585;28;19925;-74
2024/03/06 01:17:51;;;;;;;;;;;;;;;;;;4977017;28;20957;-72
2024/03/06 01:20:18;;;;;;;;;;;;;;;;;;4977649;28;19972;-71
2024/03/06 01:22:43;;;;;;;;;;;;;;;;;;4983959;28;19928;-72
2024/03/06 01:25:09;;;;;;;;;;;;;;;;;;4975787;28;19918;-72
2024/03/06 01:27:34;;;;;;;;;;;;;;;;;;4970734;28;19945;-71
2024/03/06 01:30:00;;;;;;;;;;;;;;;;;;4979227;28;19922;-71
2024/03/06 01:32:28;;;;;;;;;;;;;;;;;;4982376;28;20369;-72
2024/03/06 01:34:58;;;;;;;;;;;;;;;;;;4978503;28;20369;-73
2024/03/06 01:37:23;;;;;;;;;;;;;;;;;;4971013;28;19972;-71
2024/03/06 01:39:49;;;;;;;;;;;;;;;;;;4975647;28;20017;-71
2024/03/06 01:42:17;;;;;;;;;;;;;;;;;;4977245;28;19933;-70
2024/03/06 01:44:42;;;;;;;;;;;;;;;;;;4976515;28;19924;-72
2024/03/06 01:47:10;;;;;;;;;;;;;;;;;;4976085;28;19926;-70
2024/03/06 01:49:35;;;;;;;;;;;;;;;;;;4978516;28;19918;-70
2024/03/06 01:52:01;;;;;;;;;;;;;;;;;;4975073;28;20400;-70
2024/03/06 01:54:26;;;;;;;;;;;;;;;;;;4976131;28;19925;-69
2024/03/06 02:00:08;;;;;;;;;;;;;;;;;;4974187;28;19929;-69
2024/03/06 02:02:35;;;;;;;;;;;;;;;;;;4969227;28;19918;-71
2024/03/06 02:05:04;;;;;;;;;;;;;;;;;;4972667;28;19922;-71
2024/03/06 02:07:31;;;;;;;;;;;;;;;;;;4975403;28;19918;-71
2024/03/06 02:09:57;;;;;;;;;;;;;;;;;;4979911;28;20411;-70
2024/03/06 02:12:23;;;;;;;;;;;;;;;;;;4973782;28;20444;-69
2024/03/06 02:14:48;;;;;;;;;;;;;;;;;;4974968;28;19926;-68
2024/03/06 02:17:13;;;;;;;;;;;;;;;;;;4974702;28;20344;-71
2024/03/06 02:19:39;;;;;;;;;;;;;;;;;;4968801;28;20649;-71
2024/03/06 02:22:07;;;;;;;;;;;;;;;;;;4972770;28;19921;-70
2024/03/06 02:24:32;;;;;;;;;;;;;;;;;;4973184;28;19926;-71
2024/03/06 02:27:00;;;;;;;;;;;;;;;;;;4975226;28;20419;-70
2024/03/06 02:29:28;;;;;;;;;;;;;;;;;;4974686;28;19949;-71
2024/03/06 02:31:53;;;;;;;;;;;;;;;;;;4977290;28;20470;-70
2024/03/06 02:37:37;;;;;;;;;;;;;;;;;;4969870;28;20210;-69
2024/03/06 02:40:03;;;;;;;;;;;;;;;;;;4982034;28;19921;-69
2024/03/06 02:42:28;;;;;;;;;;;;;;;;;;4949124;28;20553;-69
2024/03/06 02:44:54;;;;;;;;;;;;;;;;;;4973162;28;19948;-69
2024/03/06 02:47:19;;;;;;;;;;;;;;;;;;4969087;28;19936;-72
2024/03/06 02:49:49;;;;;;;;;;;;;;;;;;4980726;28;19921;-69
2024/03/06 02:52:18;;;;;;;;;;;;;;;;;;4972343;28;20995;-67
2024/03/06 02:54:45;;;;;;;;;;;;;;;;;;4974286;28;19929;-69
2024/03/06 02:57:11;;;;;;;;;;;;;;;;;;4974055;28;20297;-70
2024/03/06 02:59:38;;;;;;;;;;;;;;;;;;4975235;28;19972;-70
2024/03/06 03:02:09;;;;;;;;;;;;;;;;;;4974705;28;19950;-69
2024/03/06 03:04:34;;;;;;;;;;;;;;;;;;4976502;28;21555;-72
2024/03/06 03:07:03;;;;;;;;;;;;;;;;;;4978353;28;20208;-68
2024/03/06 03:09:28;;;;;;;;;;;;;;;;;;4989242;28;19922;-69
2024/03/06 03:11:53;;;;;;;;;;;;;;;;;;4981561;28;19949;-69
2024/03/06 03:17:38;;;;;;;;;;;;;;;;;;4973576;28;19972;-69
2024/03/06 03:20:12;;;;;;;;;;;;;;;;;;4974129;28;19929;-69
2024/03/06 03:22:38;;;;;;;;;;;;;;;;;;4973217;28;20008;-70
2024/03/06 03:25:07;;;;;;;;;;;;;;;;;;4969968;28;19997;-71
2024/03/06 03:27:32;;;;;;;;;;;;;;;;;;4974823;28;19922;-69
2024/03/06 03:30:00;;;;;;;;;;;;;;;;;;4973974;28;19929;-70
2024/03/06 03:32:25;;;;;;;;;;;;;;;;;;4950102;28;19972;-69
2024/03/06 03:34:53;;;;;;;;;;;;;;;;;;4974963;28;20452;-72
2024/03/06 03:37:18;;;;;;;;;;;;;;;;;;4969836;28;20428;-70
2024/03/06 03:39:48;;;;;;;;;;;;;;;;;;4973066;28;19976;-70
2024/03/06 03:42:16;;;;;;;;;;;;;;;;;;4974020;28;19921;-70
2024/03/06 03:44:44;;;;;;;;;;;;;;;;;;4981312;28;19965;-70
2024/03/06 03:47:12;;;;;;;;;;;;;;;;;;4972746;28;19921;-70
2024/03/06 03:49:40;;;;;;;;;;;;;;;;;;4973996;28;19922;-70
2024/03/06 03:52:06;;;;;;;;;;;;;;;;;;4973577;28;20404;-69
2024/03/06 03:54:31;;;;;;;;;;;;;;;;;;4945164;28;19934;-70
2024/03/06 03:56:59;;;;;;;;;;;;;;;;;;4989098;28;19922;-70
2024/03/06 03:59:30;;;;;;;;;;;;;;;;;;4974814;28;20646;-69
2024/03/06 04:01:57;;;;;;;;;;;;;;;;;;4980237;28;19922;-72
2024/03/06 04:04:22;;;;;;;;;;;;;;;;;;4972840;28;20073;-69
2024/03/06 04:06:50;;;;;;;;;;;;;;;;;;4981397;28;19921;-69
2024/03/06 04:09:18;;;;;;;;;;;;;;;;;;4971345;28;20380;-70
2024/03/06 04:11:44;;;;;;;;;;;;;;;;;;4974812;28;19986;-70
2024/03/06 04:14:15;;;;;;;;;;;;;;;;;;4974799;28;20444;-72
2024/03/06 04:16:43;;;;;;;;;;;;;;;;;;4975966;28;19933;-70
2024/03/06 04:19:11;;;;;;;;;;;;;;;;;;4973456;28;19925;-72
2024/03/06 04:21:36;;;;;;;;;;;;;;;;;;4974809;28;19922;-70
2024/03/06 04:24:04;;;;;;;;;;;;;;;;;;4967224;28;20408;-70
2024/03/06 04:26:32;;;;;;;;;;;;;;;;;;4974270;28;19921;-70
2024/03/06 04:29:00;;;;;;;;;;;;;;;;;;4977122;28;20044;-70
2024/03/06 04:31:28;;;;;;;;;;;;;;;;;;4958017;28;20716;-71
2024/03/06 04:33:55;;;;;;;;;;;;;;;;;;4970222;28;19921;-71
2024/03/06 04:36:21;;;;;;;;;;;;;;;;;;4981088;28;19922;-70
2024/03/06 04:38:46;;;;;;;;;;;;;;;;;;4975114;28;19961;-70
2024/03/06 04:41:16;;;;;;;;;;;;;;;;;;4973545;28;19918;-70
2024/03/06 04:43:42;;;;;;;;;;;;;;;;;;4987718;28;19943;-72
2024/03/06 04:46:07;;;;;;;;;;;;;;;;;;4971691;28;19925;-69
2024/03/06 04:48:33;;;;;;;;;;;;;;;;;;4985281;28;19921;-70
2024/03/06 04:51:01;;;;;;;;;;;;;;;;;;4988655;28;20218;-74
2024/03/06 04:53:27;;;;;;;;;;;;;;;;;;4983560;28;20165;-70
2024/03/06 04:55:52;;;;;;;;;;;;;;;;;;4963389;28;19918;-70
2024/03/06 04:58:20;;;;;;;;;;;;;;;;;;4977831;28;20458;-70
2024/03/06 05:00:46;;;;;;;;;;;;;;;;;;4975939;28;19922;-70
2024/03/06 05:03:11;;;;;;;;;;;;;;;;;;4982159;28;19941;-70
2024/03/06 05:05:36;;;;;;;;;;;;;;;;;;4982656;28;19934;-72
2024/03/06 05:08:01;;;;;;;;;;;;;;;;;;4971843;28;20249;-70
2024/03/06 05:10:30;;;;;;;;;;;;;;;;;;4985969;28;19948;-70
2024/03/06 05:13:00;;;;;;;;;;;;;;;;;;4990801;28;20584;-71
2024/03/06 05:15:26;;;;;;;;;;;;;;;;;;4987834;28;19933;-71
2024/03/06 05:17:51;;;;;;;;;;;;;;;;;;4974563;28;19922;-70
2024/03/06 05:20:20;;;;;;;;;;;;;;;;;;4977211;28;19921;-70
2024/03/06 05:22:48;;;;;;;;;;;;;;;;;;4984480;28;19929;-69
2024/03/06 05:25:15;;;;;;;;;;;;;;;;;;4956866;28;19992;-70
2024/03/06 05:27:44;;;;;;;;;;;;;;;;;;4978031;28;20377;-70
2024/03/06 05:30:14;;;;;;;;;;;;;;;;;;4977643;28;20558;-69
2024/03/06 05:32:40;;;;;;;;;;;;;;;;;;4989441;28;19972;-71
2024/03/06 05:35:05;;;;;;;;;;;;;;;;;;4978654;28;19966;-73
2024/03/06 05:37:33;;;;;;;;;;;;;;;;;;4976172;28;19933;-70
2024/03/06 05:39:58;;;;;;;;;;;;;;;;;;4960500;28;20069;-72
2024/03/06 05:42:26;;;;;;;;;;;;;;;;;;4971722;28;19922;-72
2024/03/06 05:44:54;;;;;;;;;;;;;;;;;;4974895;28;20399;-72
2024/03/06 05:47:19;;;;;;;;;;;;;;;;;;4976292;28;19929;-72
2024/03/06 05:49:45;;;;;;;;;;;;;;;;;;4982269;28;19968;-72
2024/03/06 05:52:10;;;;;;;;;;;;;;;;;;4976288;28;20356;-70
2024/03/06 05:54:37;;;;;;;;;;;;;;;;;;4979518;28;19930;-71
2024/03/06 05:57:07;;;;;;;;;;;;;;;;;;4969229;28;19972;-71
2024/03/06 05:59:32;;;;;;;;;;;;;;;;;;4967494;28;20144;-70
2024/03/06 06:02:00;;;;;;;;;;;;;;;;;;4969131;28;19922;-72
2024/03/06 06:04:28;;;;;;;;;;;;;;;;;;4973027;28;19926;-70
2024/03/06 06:06:59;;;;;;;;;;;;;;;;;;4977753;28;19922;-72
2024/03/06 06:09:27;;;;;;;;;;;;;;;;;;4974380;28;19922;-71
2024/03/06 06:11:53;;;;;;;;;;;;;;;;;;4977575;28;20450;-72
2024/03/06 06:14:19;;;;;;;;;;;;;;;;;;4978293;28;19921;-75
2024/03/06 06:16:44;;;;;;;;;;;;;;;;;;4968213;28;19992;-72
2024/03/06 06:19:10;;;;;;;;;;;;;;;;;;4975744;28;19947;-72
2024/03/06 06:21:35;;;;;;;;;;;;;;;;;;4984250;28;19922;-70
2024/03/06 06:24:01;;;;;;;;;;;;;;;;;;4968804;28;21482;-69
2024/03/06 06:26:32;;;;;;;;;;;;;;;;;;4975711;28;19921;-72
2024/03/06 06:28:57;;;;;;;;;;;;;;;;;;4975983;28;19932;-71
2024/03/06 06:31:23;;;;;;;;;;;;;;;;;;4977417;28;19918;-71
2024/03/06 06:33:49;;;;;;;;;;;;;;;;;;4982580;28;20023;-75
2024/03/06 06:36:14;;;;;;;;;;;;;;;;;;4982979;28;19921;-72
2024/03/06 06:38:40;;;;;;;;;;;;;;;;;;4977923;28;20330;-73
2024/03/06 06:41:05;;;;;;;;;;;;;;;;;;4974893;28;20777;-72
2024/03/06 06:43:31;;;;;;;;;;;;;;;;;;4977456;28;19928;-70
2024/03/06 06:45:56;;;;;;;;;;;;;;;;;;4974493;28;19925;-72
2024/03/06 06:48:22;;;;;;;;;;;;;;;;;;4976623;28;20031;-72
2024/03/06 06:50:48;;;;;;;;;;;;;;;;;;4977635;28;19928;-71
2024/03/06 06:53:13;;;;;;;;;;;;;;;;;;4977265;28;20304;-70
2024/03/06 06:55:39;;;;;;;;;;;;;;;;;;4974900;28;20316;-73
2024/03/06 06:58:04;;;;;;;;;;;;;;;;;;4974963;28;20392;-72
2024/03/06 07:00:30;;;;;;;;;;;;;;;;;;4978123;28;19914;-73
2024/03/06 07:02:58;;;;;;;;;;;;;;;;;;4982131;28;20397;-73
2024/03/06 07:05:23;;;;;;;;;;;;;;;;;;4982271;28;20194;-74
2024/03/06 07:07:49;;;;;;;;;;;;;;;;;;4974654;28;20109;-73
2024/03/06 07:10:14;;;;;;;;;;;;;;;;;;4975456;28;20235;-71
2024/03/06 07:12:45;;;;;;;;;;;;;;;;;;4974631;28;20654;-73
2024/03/06 07:15:12;;;;;;;;;;;;;;;;;;4977437;28;20634;-73
2024/03/06 07:17:38;;;;;;;;;;;;;;;;;;4982895;28;19926;-74
2024/03/06 07:20:05;;;;;;;;;;;;;;;;;;4983761;28;19914;-72
2024/03/06 07:22:31;;;;;;;;;;;;;;;;;;4982047;28;19922;-72
2024/03/06 07:24:56;;;;;;;;;;;;;;;;;;4967191;28;20258;-73
2024/03/06 07:27:22;;;;;;;;;;;;;;;;;;4974986;28;19985;-71
2024/03/06 07:29:47;;;;;;;;;;;;;;;;;;4975353;28;20012;-72
2024/03/06 07:32:13;;;;;;;;;;;;;;;;;;4974656;28;19941;-73
2024/03/06 07:37:56;;;;;;;;;;;;;;;;;;4963106;28;19936;-72
2024/03/06 07:40:22;;;;;;;;;;;;;;;;;;4979360;28;19922;-72
2024/03/06 07:42:48;;;;;;;;;;;;;;;;;;4976821;28;20386;-71
2024/03/06 07:45:14;;;;;;;;;;;;;;;;;;4967796;28;20341;-72
2024/03/06 07:47:41;;;;;;;;;;;;;;;;;;4975096;28;19922;-72
2024/03/06 07:50:07;;;;;;;;;;;;;;;;;;4974578;28;20229;-72
2024/03/06 07:52:32;;;;;;;;;;;;;;;;;;4973053;28;20629;-72
2024/03/06 07:54:58;;;;;;;;;;;;;;;;;;4974959;28;20154;-73
2024/03/06 07:57:23;;;;;;;;;;;;;;;;;;4965429;28;19918;-72
2024/03/06 07:59:51;;;;;;;;;;;;;;;;;;4969733;28;20293;-73
2024/03/06 08:02:17;;;;;;;;;;;;;;;;;;4963453;28;19933;-73
2024/03/06 08:07:58;;;;;;;;;;;;;;;;;;4975029;28;20160;-72
2024/03/06 08:10:24;;;;;;;;;;;;;;;;;;4974011;28;19929;-73
2024/03/06 08:12:49;;;;;;;;;;;;;;;;;;4974771;28;19920;-73
2024/03/06 08:15:14;;;;;;;;;;;;;;;;;;4974153;28;20100;-72
2024/03/06 08:17:41;;;;;;;;;;;;;;;;;;4976448;28;20044;-72
2024/03/06 08:20:07;;;;;;;;;;;;;;;;;;4972451;28;19921;-72
2024/03/06 08:22:32;;;;;;;;;;;;;;;;;;4974003;28;20455;-72
2024/03/06 08:24:58;;;;;;;;;;;;;;;;;;4981379;28;19917;-73
2024/03/06 08:27:23;;;;;;;;;;;;;;;;;;4981016;28;19914;-72
2024/03/06 08:29:48;;;;;;;;;;;;;;;;;;4968511;28;19961;-72
2024/03/06 08:32:14;;;;;;;;;;;;;;;;;;4958083;28;19922;-72
2024/03/06 08:34:39;;;;;;;;;;;;;;;;;;4953694;28;19975;-72
2024/03/06 08:37:05;;;;;;;;;;;;;;;;;;4973849;28;20396;-72
2024/03/06 08:39:32;;;;;;;;;;;;;;;;;;4973325;28;20325;-71
2024/03/06 08:41:58;;;;;;;;;;;;;;;;;;4975523;28;19918;-73
2024/03/06 08:44:23;;;;;;;;;;;;;;;;;;4975839;28;20413;-72
2024/03/06 08:46:48;;;;;;;;;;;;;;;;;;4983387;28;20470;-73
2024/03/06 08:49:14;;;;;;;;;;;;;;;;;;4974616;28;19918;-72
2024/03/06 08:51:39;;;;;;;;;;;;;;;;;;4974110;28;19922;-72
2024/03/06 08:54:04;;;;;;;;;;;;;;;;;;4973481;28;20722;-71
2024/03/06 08:56:30;;;;;;;;;;;;;;;;;;4966482;28;19922;-72
2024/03/06 08:58:55;;;;;;;;;;;;;;;;;;4975128;28;19972;-73
2024/03/06 09:01:20;;;;;;;;;;;;;;;;;;4974170;28;19918;-72
2024/03/06 09:03:46;;;;;;;;;;;;;;;;;;4980380;28;19922;-72
2024/03/06 09:06:12;;;;;;;;;;;;;;;;;;4973940;28;19925;-72
2024/03/06 09:08:37;;;;;;;;;;;;;;;;;;4975707;28;19929;-71
2024/03/06 09:11:03;;;;;;;;;;;;;;;;;;4978769;28;19922;-73
2024/03/06 09:13:28;;;;;;;;;;;;;;;;;;4974317;28;20362;-74
2024/03/06 09:15:54;;;;;;;;;;;;;;;;;;4973229;28;19937;-73
2024/03/06 09:18:26;;;;;;;;;;;;;;;;;;4980683;28;19922;-73
2024/03/06 09:20:56;;;;;;;;;;;;;;;;;;4976303;28;20120;-73
2024/03/06 09:23:21;;;;;;;;;;;;;;;;;;4984665;28;20565;-72
2024/03/06 09:25:48;;;;;;;;;;;;;;;;;;4984090;28;19928;-71
2024/03/06 09:28:13;;;;;;;;;;;;;;;;;;4977015;28;20385;-72
2024/03/06 09:30:39;;;;;;;;;;;;;;;;;;4978708;28;19984;-71
2024/03/06 09:33:04;;;;;;;;;;;;;;;;;;4975839;28;19922;-73
2024/03/06 09:35:33;;;;;;;;;;;;;;;;;;4960466;28;19926;-72
2024/03/06 09:44:28;;;;;;;;;;;;;;;;;;4957912;28;19929;-72
2024/03/06 09:46:54;;;;;;;;;;;;;;;;;;4956365;28;19922;-73
2024/03/06 09:52:10;;;;;;;;;;;;;;;;;;4959561;28;19917;-72
2024/03/06 09:54:35;;;;;;;;;;;;;;;;;;4956296;28;20492;-72
2024/03/06 09:57:01;;;;;;;;;;;;;;;;;;4958010;28;20022;-73
2024/03/06 09:59:30;;;;;;;;;;;;;;;;;;4958368;28;19918;-72
2024/03/06 10:01:55;;;;;;;;;;;;;;;;;;4963860;28;19918;-73
2024/03/06 10:04:21;;;;;;;;;;;;;;;;;;4956670;28;19918;-71
2024/03/06 10:06:47;;;;;;;;;;;;;;;;;;4957022;28;20044;-73
2024/03/06 10:09:12;;;;;;;;;;;;;;;;;;4949795;28;19982;-73
2024/03/06 10:11:38;;;;;;;;;;;;;;;;;;4948581;28;19921;-72
2024/03/06 10:14:03;;;;;;;;;;;;;;;;;;4963090;28;19977;-74
2024/03/06 10:16:32;;;;;;;;;;;;;;;;;;4958071;28;20476;-72
2024/03/06 10:19:00;;;;;;;;;;;;;;;;;;4955289;28;20067;-72
2024/03/06 10:21:26;;;;;;;;;;;;;;;;;;4958364;28;19918;-72
2024/03/06 10:23:51;;;;;;;;;;;;;;;;;;4949019;28;19945;-73
2024/03/06 10:26:18;;;;;;;;;;;;;;;;;;4955987;28;19914;-72
2024/03/06 10:28:43;;;;;;;;;;;;;;;;;;4957172;28;19922;-73
2024/03/06 10:31:09;;;;;;;;;;;;;;;;;;4961830;28;19933;-72
2024/03/06 10:33:35;;;;;;;;;;;;;;;;;;4953701;28;20397;-71
2024/03/06 10:36:01;;;;;;;;;;;;;;;;;;4956237;28;19968;-72
2024/03/06 10:38:26;;;;;;;;;;;;;;;;;;4956626;28;19933;-72
2024/03/06 10:40:52;;;;;;;;;;;;;;;;;;4976451;28;19921;-72
2024/03/06 10:43:17;;;;;;;;;;;;;;;;;;4975612;28;20048;-72
2024/03/06 10:45:43;;;;;;;;;;;;;;;;;;4976991;28;19924;-73
2024/03/06 10:48:11;;;;;;;;;;;;;;;;;;4976920;28;19914;-71
2024/03/06 10:50:36;;;;;;;;;;;;;;;;;;4974511;28;20004;-72
2024/03/06 10:53:02;;;;;;;;;;;;;;;;;;4975222;28;20004;-71
2024/03/06 10:55:28;;;;;;;;;;;;;;;;;;4976188;28;20251;-72
2024/03/06 10:57:53;;;;;;;;;;;;;;;;;;4976506;28;20412;-72
2024/03/06 11:00:19;;;;;;;;;;;;;;;;;;4973509;28;20025;-72
2024/03/06 11:02:44;;;;;;;;;;;;;;;;;;4975198;28;20350;-72
2024/03/06 11:05:09;;;;;;;;;;;;;;;;;;4976392;28;19939;-72
2024/03/06 11:07:35;;;;;;;;;;;;;;;;;;4974478;28;19976;-73
2024/03/06 11:10:00;;;;;;;;;;;;;;;;;;4975898;28;20288;-73
2024/03/06 11:12:26;;;;;;;;;;;;;;;;;;4989985;28;20809;-73
2024/03/06 11:14:52;;;;;;;;;;;;;;;;;;4974426;28;20004;-73
2024/03/06 11:17:18;;;;;;;;;;;;;;;;;;4978775;28;20456;-73
2024/03/06 11:19:43;;;;;;;;;;;;;;;;;;4981734;28;19929;-73
2024/03/06 11:22:09;;;;;;;;;;;;;;;;;;4975701;28;20350;-73
2024/03/06 11:24:34;;;;;;;;;;;;;;;;;;4974331;28;19988;-72
2024/03/06 11:30:16;;;;;;;;;;;;;;;;;;4975075;28;20074;-73
2024/03/06 11:32:41;;;;;;;;;;;;;;;;;;4981238;28;20405;-73
2024/03/06 11:35:08;;;;;;;;;;;;;;;;;;4974262;28;19926;-74
2024/03/06 11:37:36;;;;;;;;;;;;;;;;;;4967773;28;19928;-74
2024/03/06 11:40:02;;;;;;;;;;;;;;;;;;4975180;28;19929;-72
2024/03/06 11:42:28;;;;;;;;;;;;;;;;;;4973202;28;19921;-73
2024/03/06 11:44:54;;;;;;;;;;;;;;;;;;4982967;28;20923;-72
2024/03/06 11:47:20;;;;;;;;;;;;;;;;;;4970225;28;19928;-73
2024/03/06 11:49:47;;;;;;;;;;;;;;;;;;4974700;28;19917;-74
2024/03/06 11:52:13;;;;;;;;;;;;;;;;;;4973359;28;19921;-73
2024/03/06 11:54:39;;;;;;;;;;;;;;;;;;4981538;28;20155;-73
2024/03/06 11:57:05;;;;;;;;;;;;;;;;;;4973663;28;19918;-74
2024/03/06 11:59:30;;;;;;;;;;;;;;;;;;4975655;28;19965;-73
2024/03/06 12:01:55;;;;;;;;;;;;;;;;;;4973050;28;20614;-73
2024/03/06 12:04:21;;;;;;;;;;;;;;;;;;4981156;28;19929;-71
2024/03/06 12:06:46;;;;;;;;;;;;;;;;;;4977011;28;19957;-72
2024/03/06 12:09:12;;;;;;;;;;;;;;;;;;4981578;28;20369;-72
2024/03/06 12:11:37;;;;;;;;;;;;;;;;;;4973693;28;19954;-73
2024/03/06 12:14:02;;;;;;;;;;;;;;;;;;4971797;28;19933;-73
2024/03/06 12:16:28;;;;;;;;;;;;;;;;;;4973272;28;19921;-73
2024/03/06 12:18:53;;;;;;;;;;;;;;;;;;4973920;28;20459;-72
2024/03/06 12:21:19;;;;;;;;;;;;;;;;;;4970685;28;20013;-72
2024/03/06 12:23:44;;;;;;;;;;;;;;;;;;4972974;28;19924;-73
2024/03/06 12:26:10;;;;;;;;;;;;;;;;;;4972575;28;20285;-73
2024/03/06 12:28:36;;;;;;;;;;;;;;;;;;4971785;28;20382;-74
2024/03/06 12:31:01;;;;;;;;;;;;;;;;;;4962806;28;20239;-73
2024/03/06 12:33:27;;;;;;;;;;;;;;;;;;4979038;28;20076;-73
2024/03/06 12:35:52;;;;;;;;;;;;;;;;;;4969207;28;19964;-72
2024/03/06 12:38:17;;;;;;;;;;;;;;;;;;4963735;28;20016;-74
2024/03/06 12:40:43;;;;;;;;;;;;;;;;;;4969730;28;19925;-73
2024/03/06 12:43:09;;;;;;;;;;;;;;;;;;4971760;28;19917;-73
2024/03/06 12:45:34;;;;;;;;;;;;;;;;;;4972801;28;19997;-72
2024/03/06 12:48:00;;;;;;;;;;;;;;;;;;4972187;28;19921;-73
2024/03/06 12:50:25;;;;;;;;;;;;;;;;;;4980147;28;20016;-72
2024/03/06 12:52:52;;;;;;;;;;;;;;;;;;4980895;28;19918;-73
2024/03/06 12:55:17;;;;;;;;;;;;;;;;;;4977229;28;19930;-73
2024/03/06 12:57:43;;;;;;;;;;;;;;;;;;4984802;28;19980;-73
2024/03/06 13:00:15;;;;;;;;;;;;;;;;;;4979519;28;19922;-74
2024/03/06 13:02:40;;;;;;;;;;;;;;;;;;4977467;28;20429;-73
2024/03/06 13:05:06;;;;;;;;;;;;;;;;;;4977395;28;19981;-73
2024/03/06 13:14:03;;;;;;;;;;;;;;;;;;4976914;28;20454;-73
2024/03/06 13:19:45;;;;;;;;;;;;;;;;;;4971832;28;20025;-73
2024/03/06 13:22:10;;;;;;;;;;;;;;;;;;4976963;28;19921;-73
2024/03/06 13:24:36;;;;;;;;;;;;;;;;;;4976754;28;19921;-73
2024/03/06 13:27:01;;;;;;;;;;;;;;;;;;4962181;28;20004;-73
2024/03/06 13:29:27;;;;;;;;;;;;;;;;;;4976495;28;19927;-73
2024/03/06 13:31:52;;;;;;;;;;;;;;;;;;4974068;28;20012;-73
2024/03/06 13:34:20;;;;;;;;;;;;;;;;;;4972693;28;20127;-73
2024/03/06 13:36:46;;;;;;;;;;;;;;;;;;4972420;28;20385;-73
2024/03/06 13:39:11;;;;;;;;;;;;;;;;;;4974363;28;19933;-73
2024/03/06 13:41:37;;;;;;;;;;;;;;;;;;4994862;28;19922;-72
2024/03/06 13:44:02;;;;;;;;;;;;;;;;;;4981105;28;19924;-72
2024/03/06 13:46:27;;;;;;;;;;;;;;;;;;4981465;28;19969;-71
2024/03/06 13:48:53;;;;;;;;;;;;;;;;;;4978567;28;21536;-73
2024/03/06 13:51:18;;;;;;;;;;;;;;;;;;4989709;28;19991;-73
2024/03/06 13:53:43;;;;;;;;;;;;;;;;;;4990581;28;19929;-73
2024/03/06 13:59:25;;;;;;;;;;;;;;;;;;4980869;28;19920;-73
2024/03/06 14:01:50;;;;;;;;;;;;;;;;;;4980833;28;19922;-72
2024/03/06 14:04:15;;;;;;;;;;;;;;;;;;4980148;28;20320;-72
2024/03/06 14:06:41;;;;;;;;;;;;;;;;;;4979143;28;20377;-75
2024/03/06 14:09:07;;;;;;;;;;;;;;;;;;4985204;28;20332;-74
2024/03/06 14:11:35;;;;;;;;;;;;;;;;;;4987978;28;19918;-73
2024/03/06 14:14:00;;;;;;;;;;;;;;;;;;4980717;28;20377;-73
2024/03/06 14:16:26;;;;;;;;;;;;;;;;;;4980683;28;19940;-73
2024/03/06 14:18:51;;;;;;;;;;;;;;;;;;4980077;28;20338;-72
2024/03/06 14:21:16;;;;;;;;;;;;;;;;;;4981474;28;19925;-73
2024/03/06 14:23:42;;;;;;;;;;;;;;;;;;4981002;28;19918;-73
2024/03/06 14:26:10;;;;;;;;;;;;;;;;;;4987638;28;19956;-71
2024/03/06 14:28:38;;;;;;;;;;;;;;;;;;4982381;28;19930;-74
2024/03/06 14:31:04;;;;;;;;;;;;;;;;;;4980354;28;20040;-73
2024/03/06 14:33:29;;;;;;;;;;;;;;;;;;4988369;28;19997;-73
2024/03/06 14:35:54;;;;;;;;;;;;;;;;;;4978638;28;19933;-73
2024/03/06 14:38:20;;;;;;;;;;;;;;;;;;4963466;28;22310;-73
2024/03/06 14:40:45;;;;;;;;;;;;;;;;;;4972383;28;19921;-72
2024/03/06 14:43:12;;;;;;;;;;;;;;;;;;4974732;28;20358;-73
2024/03/06 14:45:42;;;;;;;;;;;;;;;;;;4964694;28;19922;-73
2024/03/06 14:48:07;;;;;;;;;;;;;;;;;;4972959;28;19921;-72
2024/03/06 14:50:32;;;;;;;;;;;;;;;;;;4975135;28;20384;-74
2024/03/06 14:52:58;;;;;;;;;;;;;;;;;;4981792;28;20093;-73
2024/03/06 14:55:23;;;;;;;;;;;;;;;;;;4973261;28;20668;-73
2024/03/06 14:57:49;;;;;;;;;;;;;;;;;;4981376;28;19922;-74
2024/03/06 15:00:17;;;;;;;;;;;;;;;;;;4972732;28;20762;-74
2024/03/06 15:02:42;;;;;;;;;;;;;;;;;;4973208;28;19996;-74
2024/03/06 15:05:07;;;;;;;;;;;;;;;;;;4992157;28;19917;-74
2024/03/06 15:07:33;;;;;;;;;;;;;;;;;;4989141;28;20032;-74
2024/03/06 15:09:58;;;;;;;;;;;;;;;;;;4976162;28;19922;-74
2024/03/06 15:12:24;;;;;;;;;;;;;;;;;;4973596;28;19921;-73
2024/03/06 15:14:49;;;;;;;;;;;;;;;;;;4981773;28;19929;-74
2024/03/06 15:17:14;;;;;;;;;;;;;;;;;;4978106;28;20044;-73
2024/03/06 15:19:40;;;;;;;;;;;;;;;;;;4973183;28;20044;-74
2024/03/06 15:22:05;;;;;;;;;;;;;;;;;;4971889;28;19960;-73
2024/03/06 15:24:31;;;;;;;;;;;;;;;;;;4962975;28;19922;-73
2024/03/06 15:26:56;;;;;;;;;;;;;;;;;;4971631;28;19929;-73
2024/03/06 15:29:22;;;;;;;;;;;;;;;;;;4980889;28;19953;-73
2024/03/06 15:31:47;;;;;;;;;;;;;;;;;;4969997;28;20695;-74
2024/03/06 15:34:12;;;;;;;;;;;;;;;;;;4950615;28;19932;-74
2024/03/06 15:36:38;;;;;;;;;;;;;;;;;;4970840;28;19949;-73
2024/03/06 15:39:06;;;;;;;;;;;;;;;;;;4979810;28;19918;-73
2024/03/06 15:41:31;;;;;;;;;;;;;;;;;;4975744;28;20344;-74
2024/03/06 15:43:57;;;;;;;;;;;;;;;;;;4973699;28;19929;-73
2024/03/06 15:46:23;;;;;;;;;;;;;;;;;;4970569;28;20044;-74
2024/03/06 15:48:49;;;;;;;;;;;;;;;;;;4971974;28;19929;-73
2024/03/06 15:51:14;;;;;;;;;;;;;;;;;;4978404;28;19922;-72
2024/03/06 15:53:39;;;;;;;;;;;;;;;;;;4980951;28;19921;-73
2024/03/06 15:56:05;;;;;;;;;;;;;;;;;;4969300;28;19930;-73
2024/03/06 15:58:30;;;;;;;;;;;;;;;;;;4973967;28;19964;-73
2024/03/06 16:00:56;;;;;;;;;;;;;;;;;;4979684;28;19977;-74
2024/03/06 16:03:21;;;;;;;;;;;;;;;;;;4964129;28;19917;-72
2024/03/06 16:05:48;;;;;;;;;;;;;;;;;;4976998;28;20281;-72
2024/03/06 16:11:30;;;;;;;;;;;;;;;;;;4972700;28;20347;-73
2024/03/06 16:14:00;;;;;;;;;;;;;;;;;;4972776;28;20028;-71
2024/03/06 16:16:26;;;;;;;;;;;;;;;;;;4971918;28;19917;-72
2024/03/06 16:18:51;;;;;;;;;;;;;;;;;;4972319;28;20377;-74
2024/03/06 16:21:18;;;;;;;;;;;;;;;;;;4960871;28;19921;-72
2024/03/06 16:23:44;;;;;;;;;;;;;;;;;;4978301;28;19922;-74
2024/03/06 16:26:09;;;;;;;;;;;;;;;;;;4971974;28;20544;-73
2024/03/06 16:28:34;;;;;;;;;;;;;;;;;;4971419;28;19922;-74
2024/03/06 16:31:00;;;;;;;;;;;;;;;;;;4983338;28;19929;-73
2024/03/06 16:33:25;;;;;;;;;;;;;;;;;;4977065;28;19929;-73
2024/03/06 16:35:50;;;;;;;;;;;;;;;;;;4973065;28;19995;-74
2024/03/06 16:38:17;;;;;;;;;;;;;;;;;;4973088;28;19973;-73
2024/03/06 16:40:42;;;;;;;;;;;;;;;;;;4973857;28;19943;-72
2024/03/06 16:43:08;;;;;;;;;;;;;;;;;;4974822;28;20476;-73
2024/03/06 16:45:33;;;;;;;;;;;;;;;;;;4973645;28;20535;-73
2024/03/06 16:48:00;;;;;;;;;;;;;;;;;;4976891;28;20012;-74
2024/03/06 16:50:27;;;;;;;;;;;;;;;;;;4975975;28;20404;-74
2024/03/06 16:52:56;;;;;;;;;;;;;;;;;;4975500;28;19922;-74
2024/03/06 16:55:21;;;;;;;;;;;;;;;;;;4975898;28;20011;-72
2024/03/06 16:57:46;;;;;;;;;;;;;;;;;;4977006;28;19925;-73
2024/03/06 17:00:12;;;;;;;;;;;;;;;;;;4985011;28;19941;-74
2024/03/06 17:02:37;;;;;;;;;;;;;;;;;;4980941;28;21485;-73
2024/03/06 17:05:03;;;;;;;;;;;;;;;;;;4970393;28;20330;-73
2024/03/06 17:07:28;;;;;;;;;;;;;;;;;;4973150;28;19921;-72
2024/03/06 17:09:54;;;;;;;;;;;;;;;;;;4966353;28;19988;-73
2024/03/06 17:12:24;;;;;;;;;;;;;;;;;;4964288;28;19941;-73
2024/03/06 17:14:49;;;;;;;;;;;;;;;;;;4966102;28;19933;-72
2024/03/06 17:17:15;;;;;;;;;;;;;;;;;;4974584;28;19914;-73
2024/03/06 17:19:40;;;;;;;;;;;;;;;;;;4981988;28;19972;-73
2024/03/06 17:22:05;;;;;;;;;;;;;;;;;;4976803;28;19933;-74